sensor_id;sensor_type;location;lat;lon;timestamp;P1;durP1;ratioP1;P2;durP2;ratioP2
74415;SDS011;62850;42.428;25.618;2023-03-23T00:00:45;13.07;;;7.30;;
74415;SDS011;62850;42.428;25.618;2023-03-23T00:03:10;15.55;;;7.60;;
74415;SDS011;62850;42.428;25.618;2023-03-23T00:05:37;15.02;;;7.55;;
74415;SDS011;62850;42.428;25.618;2023-03-23T00:08:06;15.70;;;8.15;;
74415;SDS011;62850;42.428;25.618;2023-03-23T00:10:34;18.60;;;8.68;;
74415;SDS011;62850;42.428;25.618;2023-03-23T00:13:00;18.40;;;9.25;;
74415;SDS011;62850;42.428;25.618;2023-03-23T00:15:27;22.42;;;8.57;;
74415;SDS011;62850;42.428;25.618;2023-03-23T00:17:58;19.13;;;8.70;;
74415;SDS011;62850;42.428;25.618;2023-03-23T00:20:30;18.42;;;8.32;;
74415;SDS011;62850;42.428;25.618;2023-03-23T00:23:05;17.15;;;7.90;;
74415;SDS011;62850;42.428;25.618;2023-03-23T00:25:31;18.58;;;8.73;;
74415;SDS011;62850;42.428;25.618;2023-03-23T00:27:57;17.60;;;8.48;;
74415;SDS011;62850;42.428;25.618;2023-03-23T00:30:22;17.75;;;8.25;;
74415;SDS011;62850;42.428;25.618;2023-03-23T00:32:48;17.48;;;8.45;;
74415;SDS011;62850;42.428;25.618;2023-03-23T00:35:16;19.42;;;8.35;;
74415;SDS011;62850;42.428;25.618;2023-03-23T00:37:42;18.70;;;8.48;;
74415;SDS011;62850;42.428;25.618;2023-03-23T00:40:09;19.90;;;8.82;;
74415;SDS011;62850;42.428;25.618;2023-03-23T00:42:35;17.08;;;8.65;;
74415;SDS011;62850;42.428;25.618;2023-03-23T00:45:03;18.38;;;8.48;;
74415;SDS011;62850;42.428;25.618;2023-03-23T00:47:35;16.52;;;8.82;;
74415;SDS011;62850;42.428;25.618;2023-03-23T00:50:05;17.40;;;9.43;;
74415;SDS011;62850;42.428;25.618;2023-03-23T00:52:31;17.80;;;9.40;;
74415;SDS011;62850;42.428;25.618;2023-03-23T00:54:56;17.05;;;8.90;;
74415;SDS011;62850;42.428;25.618;2023-03-23T00:57:22;18.45;;;8.15;;
74415;SDS011;62850;42.428;25.618;2023-03-23T00:59:49;15.00;;;7.60;;
74415;SDS011;62850;42.428;25.618;2023-03-23T01:02:16;14.77;;;7.53;;
74415;SDS011;62850;42.428;25.618;2023-03-23T01:04:43;13.70;;;7.28;;
74415;SDS011;62850;42.428;25.618;2023-03-23T01:07:11;11.80;;;5.90;;
74415;SDS011;62850;42.428;25.618;2023-03-23T01:09:43;15.10;;;7.00;;
74415;SDS011;62850;42.428;25.618;2023-03-23T01:12:10;13.85;;;6.95;;
74415;SDS011;62850;42.428;25.618;2023-03-23T01:14:35;13.40;;;6.28;;
74415;SDS011;62850;42.428;25.618;2023-03-23T01:17:01;15.13;;;7.07;;
74415;SDS011;62850;42.428;25.618;2023-03-23T01:19:26;13.02;;;6.75;;
74415;SDS011;62850;42.428;25.618;2023-03-23T01:21:52;12.60;;;6.15;;
74415;SDS011;62850;42.428;25.618;2023-03-23T01:24:17;12.73;;;7.15;;
74415;SDS011;62850;42.428;25.618;2023-03-23T01:26:43;12.10;;;6.43;;
74415;SDS011;62850;42.428;25.618;2023-03-23T01:29:08;15.45;;;7.75;;
74415;SDS011;62850;42.428;25.618;2023-03-23T01:31:34;18.80;;;9.07;;
74415;SDS011;62850;42.428;25.618;2023-03-23T01:34:01;17.17;;;10.70;;
74415;SDS011;62850;42.428;25.618;2023-03-23T01:36:27;25.50;;;15.57;;
74415;SDS011;62850;42.428;25.618;2023-03-23T01:38:57;29.85;;;18.52;;
74415;SDS011;62850;42.428;25.618;2023-03-23T01:41:24;34.88;;;18.52;;
74415;SDS011;62850;42.428;25.618;2023-03-23T01:46:42;23.42;;;12.98;;
74415;SDS011;62850;42.428;25.618;2023-03-23T01:49:18;22.33;;;14.23;;
74415;SDS011;62850;42.428;25.618;2023-03-23T01:51:52;23.88;;;13.00;;
74415;SDS011;62850;42.428;25.618;2023-03-23T01:56:49;21.40;;;12.35;;
74415;SDS011;62850;42.428;25.618;2023-03-23T01:59:19;20.05;;;11.13;;
74415;SDS011;62850;42.428;25.618;2023-03-23T02:01:46;26.10;;;12.65;;
74415;SDS011;62850;42.428;25.618;2023-03-23T02:04:12;23.55;;;12.85;;
74415;SDS011;62850;42.428;25.618;2023-03-23T02:06:40;25.50;;;14.45;;
74415;SDS011;62850;42.428;25.618;2023-03-23T02:09:05;26.25;;;15.18;;
74415;SDS011;62850;42.428;25.618;2023-03-23T02:11:31;23.63;;;13.65;;
74415;SDS011;62850;42.428;25.618;2023-03-23T02:13:57;22.50;;;12.75;;
74415;SDS011;62850;42.428;25.618;2023-03-23T02:36:22;21.55;;;10.13;;
74415;SDS011;62850;42.428;25.618;2023-03-23T02:38:52;18.15;;;9.40;;
74415;SDS011;62850;42.428;25.618;2023-03-23T02:41:22;19.63;;;9.27;;
74415;SDS011;62850;42.428;25.618;2023-03-23T02:46:18;18.77;;;8.52;;
74415;SDS011;62850;42.428;25.618;2023-03-23T02:48:46;18.10;;;8.50;;
74415;SDS011;62850;42.428;25.618;2023-03-23T02:51:13;19.23;;;9.30;;
74415;SDS011;62850;42.428;25.618;2023-03-23T02:53:41;18.58;;;9.23;;
74415;SDS011;62850;42.428;25.618;2023-03-23T02:56:08;19.83;;;8.98;;
74415;SDS011;62850;42.428;25.618;2023-03-23T02:58:35;18.20;;;9.63;;
74415;SDS011;62850;42.428;25.618;2023-03-23T03:03:52;20.00;;;9.30;;
74415;SDS011;62850;42.428;25.618;2023-03-23T03:06:23;18.80;;;9.05;;
74415;SDS011;62850;42.428;25.618;2023-03-23T03:09:12;21.05;;;9.85;;
74415;SDS011;62850;42.428;25.618;2023-03-23T03:11:46;18.70;;;9.43;;
74415;SDS011;62850;42.428;25.618;2023-03-23T03:14:19;21.52;;;9.93;;
74415;SDS011;62850;42.428;25.618;2023-03-23T03:19:44;20.55;;;9.27;;
74415;SDS011;62850;42.428;25.618;2023-03-23T03:22:11;26.77;;;10.93;;
74415;SDS011;62850;42.428;25.618;2023-03-23T03:24:38;22.70;;;10.18;;
74415;SDS011;62850;42.428;25.618;2023-03-23T03:27:06;21.70;;;9.55;;
74415;SDS011;62850;42.428;25.618;2023-03-23T03:29:40;20.80;;;9.93;;
74415;SDS011;62850;42.428;25.618;2023-03-23T03:32:06;20.80;;;9.60;;
74415;SDS011;62850;42.428;25.618;2023-03-23T03:34:35;21.20;;;11.02;;
74415;SDS011;62850;42.428;25.618;2023-03-23T03:37:01;22.45;;;10.07;;
74415;SDS011;62850;42.428;25.618;2023-03-23T03:39:29;22.25;;;9.85;;
74415;SDS011;62850;42.428;25.618;2023-03-23T03:41:55;20.77;;;10.10;;
74415;SDS011;62850;42.428;25.618;2023-03-23T03:44:20;22.73;;;11.23;;
74415;SDS011;62850;42.428;25.618;2023-03-23T03:46:46;25.02;;;10.82;;
74415;SDS011;62850;42.428;25.618;2023-03-23T03:49:12;26.23;;;11.60;;
74415;SDS011;62850;42.428;25.618;2023-03-23T03:51:38;24.27;;;10.00;;
74415;SDS011;62850;42.428;25.618;2023-03-23T03:54:05;23.60;;;11.45;;
74415;SDS011;62850;42.428;25.618;2023-03-23T03:56:31;21.63;;;10.70;;
74415;SDS011;62850;42.428;25.618;2023-03-23T03:59:00;28.65;;;11.82;;
74415;SDS011;62850;42.428;25.618;2023-03-23T04:01:27;26.58;;;11.82;;
74415;SDS011;62850;42.428;25.618;2023-03-23T04:03:53;27.33;;;12.43;;
74415;SDS011;62850;42.428;25.618;2023-03-23T04:06:19;27.67;;;12.88;;
74415;SDS011;62850;42.428;25.618;2023-03-23T04:08:45;26.90;;;12.60;;
74415;SDS011;62850;42.428;25.618;2023-03-23T04:11:11;29.35;;;13.15;;
74415;SDS011;62850;42.428;25.618;2023-03-23T04:13:39;27.15;;;13.55;;
74415;SDS011;62850;42.428;25.618;2023-03-23T04:16:05;31.80;;;13.57;;
74415;SDS011;62850;42.428;25.618;2023-03-23T04:18:31;35.55;;;15.50;;
74415;SDS011;62850;42.428;25.618;2023-03-23T04:20:58;31.95;;;13.73;;
74415;SDS011;62850;42.428;25.618;2023-03-23T04:23:26;33.33;;;15.10;;
74415;SDS011;62850;42.428;25.618;2023-03-23T04:25:53;32.05;;;14.23;;
74415;SDS011;62850;42.428;25.618;2023-03-23T04:28:23;32.75;;;14.93;;
74415;SDS011;62850;42.428;25.618;2023-03-23T04:30:50;30.73;;;14.38;;
74415;SDS011;62850;42.428;25.618;2023-03-23T04:33:20;33.42;;;14.93;;
74415;SDS011;62850;42.428;25.618;2023-03-23T04:35:54;34.55;;;15.65;;
74415;SDS011;62850;42.428;25.618;2023-03-23T04:38:23;30.63;;;13.90;;
74415;SDS011;62850;42.428;25.618;2023-03-23T04:40:50;31.73;;;14.48;;
74415;SDS011;62850;42.428;25.618;2023-03-23T04:43:17;31.13;;;15.00;;
74415;SDS011;62850;42.428;25.618;2023-03-23T04:45:47;36.97;;;14.82;;
74415;SDS011;62850;42.428;25.618;2023-03-23T04:48:21;32.15;;;13.90;;
74415;SDS011;62850;42.428;25.618;2023-03-23T04:50:51;27.67;;;12.68;;
74415;SDS011;62850;42.428;25.618;2023-03-23T04:53:17;28.13;;;12.65;;
74415;SDS011;62850;42.428;25.618;2023-03-23T04:55:43;27.40;;;12.18;;
74415;SDS011;62850;42.428;25.618;2023-03-23T04:58:09;29.05;;;12.05;;
74415;SDS011;62850;42.428;25.618;2023-03-23T05:00:35;28.65;;;12.73;;
74415;SDS011;62850;42.428;25.618;2023-03-23T05:03:01;26.33;;;11.60;;
74415;SDS011;62850;42.428;25.618;2023-03-23T05:05:27;29.65;;;11.90;;
74415;SDS011;62850;42.428;25.618;2023-03-23T05:07:55;27.58;;;13.15;;
74415;SDS011;62850;42.428;25.618;2023-03-23T05:10:22;30.52;;;12.88;;
74415;SDS011;62850;42.428;25.618;2023-03-23T05:12:48;28.45;;;12.57;;
74415;SDS011;62850;42.428;25.618;2023-03-23T05:15:14;32.63;;;13.77;;
74415;SDS011;62850;42.428;25.618;2023-03-23T05:17:41;33.60;;;13.65;;
74415;SDS011;62850;42.428;25.618;2023-03-23T05:20:11;37.30;;;14.18;;
74415;SDS011;62850;42.428;25.618;2023-03-23T05:22:39;31.63;;;14.00;;
74415;SDS011;62850;42.428;25.618;2023-03-23T05:25:06;28.75;;;13.75;;
74415;SDS011;62850;42.428;25.618;2023-03-23T05:27:34;31.80;;;13.52;;
74415;SDS011;62850;42.428;25.618;2023-03-23T05:30:00;32.40;;;16.17;;
74415;SDS011;62850;42.428;25.618;2023-03-23T05:32:26;38.00;;;20.05;;
74415;SDS011;62850;42.428;25.618;2023-03-23T05:34:55;46.90;;;23.30;;
74415;SDS011;62850;42.428;25.618;2023-03-23T05:37:24;42.25;;;23.40;;
74415;SDS011;62850;42.428;25.618;2023-03-23T05:39:51;40.83;;;23.25;;
74415;SDS011;62850;42.428;25.618;2023-03-23T05:42:18;43.67;;;21.25;;
74415;SDS011;62850;42.428;25.618;2023-03-23T05:44:45;48.75;;;21.80;;
74415;SDS011;62850;42.428;25.618;2023-03-23T05:47:11;40.92;;;19.08;;
74415;SDS011;62850;42.428;25.618;2023-03-23T05:49:37;51.65;;;20.92;;
74415;SDS011;62850;42.428;25.618;2023-03-23T05:52:03;57.63;;;23.73;;
74415;SDS011;62850;42.428;25.618;2023-03-23T05:54:28;58.53;;;23.08;;
74415;SDS011;62850;42.428;25.618;2023-03-23T05:56:54;59.53;;;21.95;;
74415;SDS011;62850;42.428;25.618;2023-03-23T05:59:19;61.20;;;22.23;;
74415;SDS011;62850;42.428;25.618;2023-03-23T06:01:45;58.33;;;20.85;;
74415;SDS011;62850;42.428;25.618;2023-03-23T06:04:10;55.72;;;20.30;;
74415;SDS011;62850;42.428;25.618;2023-03-23T06:06:37;49.90;;;19.67;;
74415;SDS011;62850;42.428;25.618;2023-03-23T06:09:02;54.83;;;19.60;;
74415;SDS011;62850;42.428;25.618;2023-03-23T06:11:28;55.92;;;20.05;;
74415;SDS011;62850;42.428;25.618;2023-03-23T06:13:53;54.17;;;19.85;;
74415;SDS011;62850;42.428;25.618;2023-03-23T06:16:19;49.55;;;19.20;;
74415;SDS011;62850;42.428;25.618;2023-03-23T06:18:45;53.58;;;19.20;;
74415;SDS011;62850;42.428;25.618;2023-03-23T06:21:11;50.17;;;19.60;;
74415;SDS011;62850;42.428;25.618;2023-03-23T06:23:37;50.50;;;19.60;;
74415;SDS011;62850;42.428;25.618;2023-03-23T06:26:04;56.08;;;19.83;;
74415;SDS011;62850;42.428;25.618;2023-03-23T06:28:31;49.97;;;19.17;;
74415;SDS011;62850;42.428;25.618;2023-03-23T06:31:01;47.63;;;18.30;;
74415;SDS011;62850;42.428;25.618;2023-03-23T06:33:29;45.28;;;17.77;;
74415;SDS011;62850;42.428;25.618;2023-03-23T06:35:55;50.45;;;19.63;;
74415;SDS011;62850;42.428;25.618;2023-03-23T06:38:21;43.40;;;19.00;;
74415;SDS011;62850;42.428;25.618;2023-03-23T06:40:46;45.85;;;18.77;;
74415;SDS011;62850;42.428;25.618;2023-03-23T06:43:13;46.83;;;17.88;;
74415;SDS011;62850;42.428;25.618;2023-03-23T06:45:39;41.55;;;18.63;;
74415;SDS011;62850;42.428;25.618;2023-03-23T06:48:05;43.72;;;17.85;;
74415;SDS011;62850;42.428;25.618;2023-03-23T06:50:31;49.83;;;19.48;;
74415;SDS011;62850;42.428;25.618;2023-03-23T06:52:56;42.42;;;17.88;;
74415;SDS011;62850;42.428;25.618;2023-03-23T06:55:22;45.20;;;18.60;;
74415;SDS011;62850;42.428;25.618;2023-03-23T06:57:47;40.70;;;18.40;;
74415;SDS011;62850;42.428;25.618;2023-03-23T07:00:13;42.88;;;18.60;;
74415;SDS011;62850;42.428;25.618;2023-03-23T07:02:42;42.35;;;18.02;;
74415;SDS011;62850;42.428;25.618;2023-03-23T07:05:09;44.35;;;17.95;;
74415;SDS011;62850;42.428;25.618;2023-03-23T07:07:37;46.72;;;19.60;;
74415;SDS011;62850;42.428;25.618;2023-03-23T07:10:04;40.78;;;18.80;;
74415;SDS011;62850;42.428;25.618;2023-03-23T07:12:31;43.05;;;19.33;;
74415;SDS011;62850;42.428;25.618;2023-03-23T07:14:56;45.95;;;19.55;;
74415;SDS011;62850;42.428;25.618;2023-03-23T07:17:22;42.67;;;19.10;;
74415;SDS011;62850;42.428;25.618;2023-03-23T07:19:47;41.88;;;18.00;;
74415;SDS011;62850;42.428;25.618;2023-03-23T07:22:13;45.03;;;18.70;;
74415;SDS011;62850;42.428;25.618;2023-03-23T07:24:38;45.22;;;19.90;;
74415;SDS011;62850;42.428;25.618;2023-03-23T07:27:04;43.88;;;19.05;;
74415;SDS011;62850;42.428;25.618;2023-03-23T07:29:30;47.90;;;21.10;;
74415;SDS011;62850;42.428;25.618;2023-03-23T07:31:59;43.25;;;21.15;;
74415;SDS011;62850;42.428;25.618;2023-03-23T07:34:26;48.80;;;22.85;;
74415;SDS011;62850;42.428;25.618;2023-03-23T07:36:52;48.28;;;22.38;;
74415;SDS011;62850;42.428;25.618;2023-03-23T07:39:17;51.22;;;21.77;;
74415;SDS011;62850;42.428;25.618;2023-03-23T07:41:43;46.53;;;22.65;;
74415;SDS011;62850;42.428;25.618;2023-03-23T07:44:08;54.08;;;23.75;;
74415;SDS011;62850;42.428;25.618;2023-03-23T07:46:34;53.75;;;23.00;;
74415;SDS011;62850;42.428;25.618;2023-03-23T07:48:59;52.78;;;23.83;;
74415;SDS011;62850;42.428;25.618;2023-03-23T07:51:29;60.80;;;24.20;;
74415;SDS011;62850;42.428;25.618;2023-03-23T07:53:55;55.00;;;25.45;;
74415;SDS011;62850;42.428;25.618;2023-03-23T07:56:22;79.75;;;32.03;;
74415;SDS011;62850;42.428;25.618;2023-03-23T07:58:48;74.35;;;31.98;;
74415;SDS011;62850;42.428;25.618;2023-03-23T08:01:14;63.63;;;27.95;;
74415;SDS011;62850;42.428;25.618;2023-03-23T08:03:40;63.65;;;27.67;;
74415;SDS011;62850;42.428;25.618;2023-03-23T08:06:06;58.22;;;23.83;;
74415;SDS011;62850;42.428;25.618;2023-03-23T08:08:33;51.38;;;21.58;;
74415;SDS011;62850;42.428;25.618;2023-03-23T08:10:59;46.83;;;20.67;;
74415;SDS011;62850;42.428;25.618;2023-03-23T08:13:25;43.17;;;19.33;;
74415;SDS011;62850;42.428;25.618;2023-03-23T08:15:50;37.00;;;18.48;;
74415;SDS011;62850;42.428;25.618;2023-03-23T08:18:16;39.25;;;17.85;;
74415;SDS011;62850;42.428;25.618;2023-03-23T08:20:42;37.17;;;17.10;;
74415;SDS011;62850;42.428;25.618;2023-03-23T08:23:08;37.50;;;17.63;;
74415;SDS011;62850;42.428;25.618;2023-03-23T08:25:33;41.17;;;17.15;;
74415;SDS011;62850;42.428;25.618;2023-03-23T08:27:59;42.30;;;18.48;;
74415;SDS011;62850;42.428;25.618;2023-03-23T08:30:28;34.05;;;17.30;;
74415;SDS011;62850;42.428;25.618;2023-03-23T08:32:59;36.78;;;17.38;;
74415;SDS011;62850;42.428;25.618;2023-03-23T08:35:26;43.03;;;19.95;;
74415;SDS011;62850;42.428;25.618;2023-03-23T08:37:52;40.20;;;17.85;;
74415;SDS011;62850;42.428;25.618;2023-03-23T08:40:19;36.00;;;18.08;;
74415;SDS011;62850;42.428;25.618;2023-03-23T08:42:47;34.08;;;16.73;;
74415;SDS011;62850;42.428;25.618;2023-03-23T08:45:15;27.63;;;14.30;;
74415;SDS011;62850;42.428;25.618;2023-03-23T08:47:49;26.27;;;13.60;;
74415;SDS011;62850;42.428;25.618;2023-03-23T08:50:18;21.95;;;11.93;;
74415;SDS011;62850;42.428;25.618;2023-03-23T08:52:47;23.40;;;12.52;;
74415;SDS011;62850;42.428;25.618;2023-03-23T08:55:14;27.65;;;13.48;;
74415;SDS011;62850;42.428;25.618;2023-03-23T08:57:41;27.38;;;13.55;;
74415;SDS011;62850;42.428;25.618;2023-03-23T09:00:08;28.80;;;14.10;;
74415;SDS011;62850;42.428;25.618;2023-03-23T09:02:43;29.67;;;13.73;;
74415;SDS011;62850;42.428;25.618;2023-03-23T09:05:19;25.48;;;13.20;;
74415;SDS011;62850;42.428;25.618;2023-03-23T09:10:18;26.08;;;11.50;;
74415;SDS011;62850;42.428;25.618;2023-03-23T09:12:45;20.83;;;10.98;;
74415;SDS011;62850;42.428;25.618;2023-03-23T09:15:12;18.58;;;9.23;;
74415;SDS011;62850;42.428;25.618;2023-03-23T09:17:41;9.63;;;5.47;;
74415;SDS011;62850;42.428;25.618;2023-03-23T09:20:08;8.48;;;4.25;;
74415;SDS011;62850;42.428;25.618;2023-03-23T09:22:43;18.77;;;8.50;;
74415;SDS011;62850;42.428;25.618;2023-03-23T09:25:10;24.33;;;8.80;;
74415;SDS011;62850;42.428;25.618;2023-03-23T09:27:38;17.80;;;6.03;;
74415;SDS011;62850;42.428;25.618;2023-03-23T09:30:05;6.88;;;3.70;;
74415;SDS011;62850;42.428;25.618;2023-03-23T09:32:33;6.78;;;3.47;;
74415;SDS011;62850;42.428;25.618;2023-03-23T09:35:03;7.40;;;4.13;;
74415;SDS011;62850;42.428;25.618;2023-03-23T09:37:32;6.07;;;3.40;;
74415;SDS011;62850;42.428;25.618;2023-03-23T09:40:00;9.93;;;3.92;;
74415;SDS011;62850;42.428;25.618;2023-03-23T09:45:19;6.05;;;3.53;;
74415;SDS011;62850;42.428;25.618;2023-03-23T09:50:39;11.25;;;4.25;;
74415;SDS011;62850;42.428;25.618;2023-03-23T09:55:42;8.30;;;4.70;;
74415;SDS011;62850;42.428;25.618;2023-03-23T10:00:46;11.45;;;4.85;;
74415;SDS011;62850;42.428;25.618;2023-03-23T10:03:30;10.80;;;5.35;;
74415;SDS011;62850;42.428;25.618;2023-03-23T10:05:59;12.57;;;5.97;;
74415;SDS011;62850;42.428;25.618;2023-03-23T10:08:26;13.73;;;5.53;;
74415;SDS011;62850;42.428;25.618;2023-03-23T10:16:34;12.60;;;5.57;;
74415;SDS011;62850;42.428;25.618;2023-03-23T10:21:32;10.15;;;5.70;;
74415;SDS011;62850;42.428;25.618;2023-03-23T10:24:02;10.27;;;5.78;;
74415;SDS011;62850;42.428;25.618;2023-03-23T10:26:38;9.68;;;5.50;;
74415;SDS011;62850;42.428;25.618;2023-03-23T10:29:20;10.95;;;6.15;;
74415;SDS011;62850;42.428;25.618;2023-03-23T10:31:52;15.80;;;6.18;;
74415;SDS011;62850;42.428;25.618;2023-03-23T10:34:27;15.38;;;6.63;;
74415;SDS011;62850;42.428;25.618;2023-03-23T10:42:29;11.95;;;6.38;;
74415;SDS011;62850;42.428;25.618;2023-03-23T10:44:58;13.00;;;6.03;;
74415;SDS011;62850;42.428;25.618;2023-03-23T10:47:25;13.20;;;6.72;;
74415;SDS011;62850;42.428;25.618;2023-03-23T10:49:56;10.27;;;5.22;;
74415;SDS011;62850;42.428;25.618;2023-03-23T10:52:32;11.57;;;5.97;;
74415;SDS011;62850;42.428;25.618;2023-03-23T10:55:10;13.23;;;6.07;;
74415;SDS011;62850;42.428;25.618;2023-03-23T10:57:42;11.98;;;6.40;;
74415;SDS011;62850;42.428;25.618;2023-03-23T11:00:23;10.45;;;6.10;;
74415;SDS011;62850;42.428;25.618;2023-03-23T11:05:42;10.50;;;6.15;;
74415;SDS011;62850;42.428;25.618;2023-03-23T11:08:19;11.98;;;6.78;;
74415;SDS011;62850;42.428;25.618;2023-03-23T11:10:53;13.13;;;6.50;;
74415;SDS011;62850;42.428;25.618;2023-03-23T11:13:22;13.40;;;7.00;;
74415;SDS011;62850;42.428;25.618;2023-03-23T11:15:54;14.00;;;6.88;;
74415;SDS011;62850;42.428;25.618;2023-03-23T11:18:21;21.30;;;8.82;;
74415;SDS011;62850;42.428;25.618;2023-03-23T11:20:50;14.23;;;6.88;;
74415;SDS011;62850;42.428;25.618;2023-03-23T11:26:28;14.57;;;6.47;;
74415;SDS011;62850;42.428;25.618;2023-03-23T11:28:36;15.43;;;6.45;;
74415;SDS011;62850;42.428;25.618;2023-03-23T11:31:06;15.07;;;6.60;;
74415;SDS011;62850;42.428;25.618;2023-03-23T11:33:36;16.08;;;6.40;;
74415;SDS011;62850;42.428;25.618;2023-03-23T11:36:06;9.98;;;6.03;;
74415;SDS011;62850;42.428;25.618;2023-03-23T11:38:33;14.95;;;6.93;;
74415;SDS011;62850;42.428;25.618;2023-03-23T11:40:59;10.18;;;5.65;;
74415;SDS011;62850;42.428;25.618;2023-03-23T11:43:25;10.25;;;5.63;;
74415;SDS011;62850;42.428;25.618;2023-03-23T11:46:01;10.68;;;5.82;;
74415;SDS011;62850;42.428;25.618;2023-03-23T11:51:08;12.52;;;6.22;;
74415;SDS011;62850;42.428;25.618;2023-03-23T11:58:44;14.82;;;6.05;;
74415;SDS011;62850;42.428;25.618;2023-03-23T12:20:32;11.48;;;5.25;;
74415;SDS011;62850;42.428;25.618;2023-03-23T12:25:51;10.38;;;5.25;;
74415;SDS011;62850;42.428;25.618;2023-03-23T12:33:40;8.40;;;5.30;;
74415;SDS011;62850;42.428;25.618;2023-03-23T12:36:24;9.57;;;5.65;;
74415;SDS011;62850;42.428;25.618;2023-03-23T12:44:47;9.23;;;4.90;;
74415;SDS011;62850;42.428;25.618;2023-03-23T12:50:20;8.35;;;4.53;;
74415;SDS011;62850;42.428;25.618;2023-03-23T12:55:47;7.85;;;4.65;;
74415;SDS011;62850;42.428;25.618;2023-03-23T12:58:29;10.13;;;4.82;;
74415;SDS011;62850;42.428;25.618;2023-03-23T13:01:07;11.80;;;4.60;;
74415;SDS011;62850;42.428;25.618;2023-03-23T13:11:58;7.38;;;4.43;;
74415;SDS011;62850;42.428;25.618;2023-03-23T13:17:24;6.60;;;3.80;;
74415;SDS011;62850;42.428;25.618;2023-03-23T13:25:50;32.88;;;13.57;;
74415;SDS011;62850;42.428;25.618;2023-03-23T13:31:21;12.20;;;5.85;;
74415;SDS011;62850;42.428;25.618;2023-03-23T13:36:27;9.23;;;4.85;;
74415;SDS011;62850;42.428;25.618;2023-03-23T13:38:54;8.85;;;5.10;;
74415;SDS011;62850;42.428;25.618;2023-03-23T13:41:22;8.75;;;4.60;;
74415;SDS011;62850;42.428;25.618;2023-03-23T13:43:48;7.28;;;4.30;;
74415;SDS011;62850;42.428;25.618;2023-03-23T13:48:46;14.75;;;6.57;;
74415;SDS011;62850;42.428;25.618;2023-03-23T13:54:13;10.88;;;5.13;;
74415;SDS011;62850;42.428;25.618;2023-03-23T13:56:52;11.20;;;5.07;;
74415;SDS011;62850;42.428;25.618;2023-03-23T14:01:51;8.75;;;4.78;;
74415;SDS011;62850;42.428;25.618;2023-03-23T14:04:18;9.77;;;5.32;;
74415;SDS011;62850;42.428;25.618;2023-03-23T14:06:45;11.63;;;4.93;;
74415;SDS011;62850;42.428;25.618;2023-03-23T14:12:36;10.13;;;5.22;;
74415;SDS011;62850;42.428;25.618;2023-03-23T14:14:48;9.95;;;5.35;;
74415;SDS011;62850;42.428;25.618;2023-03-23T14:17:23;10.40;;;5.75;;
74415;SDS011;62850;42.428;25.618;2023-03-23T14:19:52;10.65;;;5.20;;
74415;SDS011;62850;42.428;25.618;2023-03-23T14:22:41;7.65;;;4.60;;
74415;SDS011;62850;42.428;25.618;2023-03-23T14:25:15;10.40;;;5.25;;
74415;SDS011;62850;42.428;25.618;2023-03-23T14:27:43;10.75;;;5.32;;
74415;SDS011;62850;42.428;25.618;2023-03-23T14:30:34;9.07;;;5.28;;
74415;SDS011;62850;42.428;25.618;2023-03-23T14:33:04;9.75;;;5.32;;
74415;SDS011;62850;42.428;25.618;2023-03-23T14:35:35;10.82;;;5.47;;
74415;SDS011;62850;42.428;25.618;2023-03-23T14:38:03;14.07;;;6.28;;
74415;SDS011;62850;42.428;25.618;2023-03-23T14:40:29;11.20;;;6.30;;
74415;SDS011;62850;42.428;25.618;2023-03-23T14:42:55;12.52;;;6.03;;
74415;SDS011;62850;42.428;25.618;2023-03-23T14:45:22;8.93;;;4.55;;
74415;SDS011;62850;42.428;25.618;2023-03-23T14:47:59;10.45;;;4.93;;
74415;SDS011;62850;42.428;25.618;2023-03-23T14:53:19;12.13;;;4.60;;
74415;SDS011;62850;42.428;25.618;2023-03-23T14:55:52;13.30;;;6.25;;
74415;SDS011;62850;42.428;25.618;2023-03-23T14:58:21;10.38;;;5.47;;
74415;SDS011;62850;42.428;25.618;2023-03-23T15:01:01;10.98;;;5.13;;
74415;SDS011;62850;42.428;25.618;2023-03-23T15:03:41;14.80;;;5.20;;
74415;SDS011;62850;42.428;25.618;2023-03-23T15:06:17;11.77;;;4.82;;
74415;SDS011;62850;42.428;25.618;2023-03-23T15:08:45;9.63;;;5.10;;
74415;SDS011;62850;42.428;25.618;2023-03-23T15:13:44;15.65;;;7.97;;
74415;SDS011;62850;42.428;25.618;2023-03-23T15:16:13;14.20;;;6.85;;
74415;SDS011;62850;42.428;25.618;2023-03-23T15:18:46;13.25;;;7.10;;
74415;SDS011;62850;42.428;25.618;2023-03-23T15:22:05;13.20;;;5.97;;
74415;SDS011;62850;42.428;25.618;2023-03-23T15:24:27;12.45;;;6.65;;
74415;SDS011;62850;42.428;25.618;2023-03-23T15:26:53;17.50;;;7.47;;
74415;SDS011;62850;42.428;25.618;2023-03-23T15:29:20;20.30;;;9.45;;
74415;SDS011;62850;42.428;25.618;2023-03-23T15:31:49;16.30;;;7.78;;
74415;SDS011;62850;42.428;25.618;2023-03-23T15:36:58;13.77;;;6.25;;
74415;SDS011;62850;42.428;25.618;2023-03-23T15:41:52;10.48;;;5.72;;
74415;SDS011;62850;42.428;25.618;2023-03-23T15:44:26;12.25;;;5.95;;
74415;SDS011;62850;42.428;25.618;2023-03-23T15:47:03;24.15;;;9.30;;
74415;SDS011;62850;42.428;25.618;2023-03-23T15:49:37;16.05;;;8.13;;
74415;SDS011;62850;42.428;25.618;2023-03-23T15:52:03;13.38;;;6.47;;
74415;SDS011;62850;42.428;25.618;2023-03-23T15:54:31;14.27;;;6.35;;
74415;SDS011;62850;42.428;25.618;2023-03-23T15:56:57;9.70;;;5.20;;
74415;SDS011;62850;42.428;25.618;2023-03-23T15:59:22;10.73;;;5.45;;
74415;SDS011;62850;42.428;25.618;2023-03-23T16:01:48;12.18;;;5.45;;
74415;SDS011;62850;42.428;25.618;2023-03-23T16:04:14;12.70;;;7.15;;
74415;SDS011;62850;42.428;25.618;2023-03-23T16:06:42;13.60;;;7.28;;
74415;SDS011;62850;42.428;25.618;2023-03-23T16:09:12;12.23;;;6.78;;
74415;SDS011;62850;42.428;25.618;2023-03-23T16:11:43;16.17;;;6.38;;
74415;SDS011;62850;42.428;25.618;2023-03-23T16:14:08;17.27;;;7.97;;
74415;SDS011;62850;42.428;25.618;2023-03-23T16:16:44;16.50;;;8.30;;
74415;SDS011;62850;42.428;25.618;2023-03-23T16:19:14;21.23;;;8.90;;
74415;SDS011;62850;42.428;25.618;2023-03-23T16:21:40;16.80;;;8.15;;
74415;SDS011;62850;42.428;25.618;2023-03-23T16:24:07;29.52;;;8.35;;
74415;SDS011;62850;42.428;25.618;2023-03-23T16:26:33;19.73;;;7.88;;
74415;SDS011;62850;42.428;25.618;2023-03-23T16:28:59;27.13;;;9.00;;
74415;SDS011;62850;42.428;25.618;2023-03-23T16:31:24;14.57;;;7.03;;
74415;SDS011;62850;42.428;25.618;2023-03-23T16:33:50;21.33;;;8.55;;
74415;SDS011;62850;42.428;25.618;2023-03-23T16:36:15;12.35;;;7.25;;
74415;SDS011;62850;42.428;25.618;2023-03-23T16:38:41;12.20;;;7.78;;
74415;SDS011;62850;42.428;25.618;2023-03-23T16:41:07;15.93;;;7.60;;
74415;SDS011;62850;42.428;25.618;2023-03-23T16:43:33;18.58;;;8.82;;
74415;SDS011;62850;42.428;25.618;2023-03-23T16:45:59;17.67;;;8.77;;
74415;SDS011;62850;42.428;25.618;2023-03-23T16:48:24;17.17;;;8.82;;
74415;SDS011;62850;42.428;25.618;2023-03-23T16:50:51;17.63;;;9.48;;
74415;SDS011;62850;42.428;25.618;2023-03-23T16:53:18;22.33;;;8.52;;
74415;SDS011;62850;42.428;25.618;2023-03-23T16:55:45;22.35;;;9.95;;
74415;SDS011;62850;42.428;25.618;2023-03-23T16:58:12;16.60;;;9.30;;
74415;SDS011;62850;42.428;25.618;2023-03-23T17:00:39;26.58;;;13.00;;